BIGK1: Big Hill Lake

Data processed at Wed May 22 2019 23:50


All information presented herein is the property of the government of the United States of America and may be revised or deleted at any time without prior notice.
Dissemination of this information without the expressed written consent of the Public Affairs Office, Tulsa District U.S. Army Corps of Engineers is strictly prohibited.
These data are gathered electronically and, as presented, have not undergone any form of quality control. These data are not guaranteed to be valid or correct.
Go to home page.
Go to station list.
Go to home page.

Downstream station:


Previous Day
Next Day
Current Day
    
SHEF ID:       BIGK1     Big Hill Lake
STATION TYPE:  RESERVOIR
Flood Pool:  Bottom =   858.00, Top =   867.50

               PRECIP ELEVATION   STORAGE    INFLOW   RELEASE  AIR-TEMP  WIND-DIRWIND-SPEED REL-HUMID SOLAR-RAD   VOLTAGE  BAT-LOAD
                   in        ft     ac-ft       cfs       cfs         F       deg       mph         %      W/m2      volt      volt
              Ccp-Rev   Ccp-Rev   Ccp-Rev  Rev-Regi  Rev-Regi   Ccp-Rev   Ccp-Rev   Ccp-Rev   Ccp-Rev   Ccp-Rev   Ccp-Rev   Ccp-Rev
(US/Central)
05/22 00:00      0.00    863.67     30264       610      1090     62.80    173.40      9.40     62.16      0.00     12.87     12.57
05/22 01:00      0.00    863.63     30211       481      1090     61.30    183.90      8.90     73.46      0.00     12.84     12.49
05/22 02:00      0.00    863.59     30159       353      1089     61.05    202.20      7.50     78.95      0.00     12.83     12.49
05/22 03:00      0.00    863.54     30092       320      1089     59.86    214.10      5.10     83.09      0.00     12.82     12.49
05/22 04:00      0.00    863.48     30013       288      1088     59.72    207.30      6.50     84.68      0.00     12.80     12.49
05/22 05:00      0.00    863.43     29947       255      1088     58.50    212.40      4.50     87.45      0.00     12.78     12.41
05/22 06:00      0.00    863.38     29881       223      1087     56.52    238.80      2.60     92.56      0.00     12.76     12.41
05/22 07:00      0.00    863.33     29815       222      1087     54.50    227.80      1.20     96.08     19.00     12.78     12.41
05/22 08:00      0.00    863.27     29735       190      1086     55.54    206.40      2.00     90.31    150.10     12.83     12.41
05/22 09:00      0.00    863.21     29656       157      1086     59.59    206.90      4.10     72.04    329.10     12.90     12.49
05/22 10:00      0.00    863.15     29576       125      1085     62.24    196.00      6.60     70.79    415.40     13.43     12.73
05/22 11:00      0.00    863.09     29497       158      1085     64.89    188.00      8.60     70.71    297.80     13.59     13.05
05/22 12:00      0.00    863.03     29418       163      1084     65.12    181.10     10.50     75.60    272.00     13.51     13.21
05/22 13:00      0.00    862.98     29352       138      1084     65.48    188.00      8.10     83.42    282.00     13.54     13.05
05/22 14:00      0.00    862.92     29275       175      1083     67.66    192.00      6.40     83.82    288.00     13.73     13.29
05/22 15:00      0.00    862.85     29186       180      1082     70.32    164.80      3.70     80.52    747.10     13.49     13.29
05/22 16:00      0.00    862.80     29121       151      1082     76.48    195.70      9.10     70.78    543.90     13.94     13.37
05/22 17:00      0.00    862.74     29044       182      1081     78.66    193.80     10.30     65.75    521.30     13.76     13.37
05/22 18:00      0.00    862.68     28967       491      1081     78.73    194.30      7.10     66.98    177.60     13.35     13.21
05/22 19:00      0.13    862.63     28903       552      1080     77.34    210.10      5.20     74.75     79.50     13.16     13.05
05/22 20:00      0.44    862.66     28942       987      1080     67.78    195.90      7.10     94.53     35.90     12.98     12.01
05/22 21:00      0.01    862.63     28903      1421      1080     65.64    342.00      3.30     98.92      5.40     12.91     12.57
05/22 22:00      1.03    862.71     29006      1825      1080     65.68    344.30      3.60     99.86      0.00     12.89     12.57
05/22 23:00      0.00    862.79     29109      1980      1081     65.12    341.90      2.60    100.24      0.00     12.87     12.57